TVF2613 LBBG-LFRS
Flight info
| Callsign | TVF2613 |
|---|---|
| Flight time | 3h 20m |
| Altitude | 38000 |
| Route | ARNOV T226 GRN Q6 ERDOM Y520 UTEKA DCT ENUPU DCT TEBLI DCT RIFEN DCT OZE DCT CANNE DCT INCUS DCT BELUS DCT LSE UY305 ESIDA DCT PECNO DCT TUPAR UM184 LUGEN |
| Aircraft | B738/M-SDE2E3FGHIRWXY/LB1 |
Departure
| Time | 2026-04-29 14:43 |
|---|---|
| Airport | Burgas Airport (LBBG) |
Arrival
| Time | 2026-04-29 18:03 |
|---|---|
| Airport | Nantes Atlantique Airport (LFRS) |
| Time | Latitude | Longitude | Altitude | Speed | Heading |
|---|---|---|---|---|---|
| 2026-04-29 14:22 | 42.56846 | 27.51732 | 104 ft | 0 kts | 99° |
| 2026-04-29 14:39 | 42.56844 | 27.51743 | 146 ft | 8 kts | 106° |
| 2026-04-29 14:39 | 42.56777 | 27.51755 | 146 ft | 12 kts | 225° |
| 2026-04-29 14:39 | 42.56700 | 27.51619 | 145 ft | 24 kts | 228° |
| 2026-04-29 14:40 | 42.56572 | 27.51421 | 141 ft | 29 kts | 227° |
| 2026-04-29 14:40 | 42.56444 | 27.51224 | 140 ft | 28 kts | 229° |
| 2026-04-29 14:40 | 42.56319 | 27.51037 | 142 ft | 26 kts | 227° |
| 2026-04-29 14:40 | 42.56196 | 27.50850 | 142 ft | 28 kts | 228° |
| 2026-04-29 14:41 | 42.56071 | 27.50660 | 139 ft | 26 kts | 228° |
| 2026-04-29 14:41 | 42.55947 | 27.50478 | 137 ft | 28 kts | 227° |
| 2026-04-29 14:41 | 42.55854 | 27.50272 | 138 ft | 31 kts | 281° |
| 2026-04-29 14:41 | 42.56042 | 27.50240 | 141 ft | 32 kts | 36° |
| 2026-04-29 14:42 | 42.56193 | 27.50439 | 144 ft | 31 kts | 44° |
| 2026-04-29 14:42 | 42.56402 | 27.50718 | 146 ft | 74 kts | 44° |
| 2026-04-29 14:42 | 42.56952 | 27.51455 | 164 ft | 143 kts | 46° |
| 2026-04-29 14:42 | 42.57737 | 27.52487 | 619 ft | 173 kts | 49° |
| 2026-04-29 14:43 | 42.58709 | 27.53615 | 1450 ft | 186 kts | 32° |
| 2026-04-29 14:43 | 42.59832 | 27.54425 | 2554 ft | 182 kts | 30° |
| 2026-04-29 14:43 | 42.60568 | 27.54982 | 3103 ft | 184 kts | 30° |
| 2026-04-29 14:43 | 42.61769 | 27.55677 | 3700 ft | 196 kts | 6° |
| 2026-04-29 14:44 | 42.63163 | 27.55370 | 3983 ft | 215 kts | 329° |
| 2026-04-29 14:44 | 42.64206 | 27.53870 | 4234 ft | 229 kts | 291° |
| 2026-04-29 14:44 | 42.64512 | 27.51736 | 4770 ft | 232 kts | 275° |
| 2026-04-29 14:44 | 42.64654 | 27.49541 | 5380 ft | 234 kts | 275° |
| 2026-04-29 14:45 | 42.64799 | 27.47308 | 5921 ft | 240 kts | 276° |
| 2026-04-29 14:45 | 42.64954 | 27.45049 | 6538 ft | 243 kts | 276° |
| 2026-04-29 14:45 | 42.65121 | 27.42770 | 7173 ft | 241 kts | 276° |
| 2026-04-29 14:45 | 42.65293 | 27.40490 | 7756 ft | 243 kts | 276° |
| 2026-04-29 14:46 | 42.65468 | 27.38214 | 8362 ft | 243 kts | 276° |
| 2026-04-29 14:46 | 42.65646 | 27.35933 | 8994 ft | 243 kts | 277° |
| 2026-04-29 14:46 | 42.65823 | 27.33655 | 9589 ft | 242 kts | 277° |
| 2026-04-29 14:46 | 42.65948 | 27.31381 | 10203 ft | 242 kts | 273° |
| 2026-04-29 14:47 | 42.65982 | 27.29093 | 10701 ft | 243 kts | 272° |
| 2026-04-29 14:47 | 42.66006 | 27.26797 | 11214 ft | 244 kts | 272° |
| 2026-04-29 14:47 | 42.66032 | 27.24488 | 11711 ft | 245 kts | 272° |
| 2026-04-29 14:47 | 42.66061 | 27.22142 | 12057 ft | 256 kts | 272° |
| 2026-04-29 14:48 | 42.66096 | 27.19631 | 12177 ft | 277 kts | 272° |
| 2026-04-29 14:48 | 42.66134 | 27.16909 | 12351 ft | 299 kts | 272° |
| 2026-04-29 14:48 | 42.66175 | 27.13981 | 12537 ft | 320 kts | 272° |
| 2026-04-29 14:48 | 42.66219 | 27.10855 | 12705 ft | 341 kts | 272° |
| 2026-04-29 14:49 | 42.66263 | 27.07545 | 12864 ft | 360 kts | 272° |
| 2026-04-29 14:49 | 42.66404 | 27.04104 | 13251 ft | 369 kts | 280° |
| 2026-04-29 14:49 | 42.67197 | 27.00789 | 13936 ft | 370 kts | 292° |
| 2026-04-29 14:49 | 42.68232 | 26.97581 | 14574 ft | 372 kts | 293° |
| 2026-04-29 14:50 | 42.69278 | 26.94354 | 15131 ft | 375 kts | 293° |
| 2026-04-29 14:50 | 42.70326 | 26.91085 | 15672 ft | 378 kts | 292° |
| 2026-04-29 14:50 | 42.71370 | 26.87789 | 16240 ft | 381 kts | 292° |
| 2026-04-29 14:50 | 42.72412 | 26.84467 | 16780 ft | 384 kts | 292° |
| 2026-04-29 14:51 | 42.73458 | 26.81115 | 17323 ft | 386 kts | 292° |
| 2026-04-29 14:51 | 42.74495 | 26.77787 | 17850 ft | 389 kts | 292° |
| 2026-04-29 14:51 | 42.75623 | 26.74429 | 18379 ft | 392 kts | 296° |
| 2026-04-29 14:51 | 42.76893 | 26.71139 | 18871 ft | 393 kts | 297° |
| 2026-04-29 14:52 | 42.78198 | 26.67869 | 19382 ft | 394 kts | 297° |
| 2026-04-29 14:52 | 42.79493 | 26.64573 | 19851 ft | 396 kts | 297° |
| 2026-04-29 14:52 | 42.80777 | 26.61247 | 20322 ft | 397 kts | 297° |
| 2026-04-29 14:52 | 42.82057 | 26.57908 | 20789 ft | 399 kts | 297° |
| 2026-04-29 14:53 | 42.83352 | 26.54561 | 21235 ft | 400 kts | 297° |
| 2026-04-29 14:53 | 42.84656 | 26.51209 | 21677 ft | 402 kts | 297° |
| 2026-04-29 14:53 | 42.85965 | 26.47843 | 22107 ft | 403 kts | 297° |
| 2026-04-29 14:53 | 42.87278 | 26.44463 | 22539 ft | 404 kts | 297° |
| 2026-04-29 14:54 | 42.88596 | 26.41063 | 22944 ft | 406 kts | 297° |
| 2026-04-29 14:54 | 42.89917 | 26.37654 | 23359 ft | 407 kts | 297° |
| 2026-04-29 14:54 | 42.91239 | 26.34233 | 23714 ft | 409 kts | 297° |
| 2026-04-29 14:54 | 42.92565 | 26.30796 | 24034 ft | 410 kts | 297° |
| 2026-04-29 14:55 | 42.93897 | 26.27339 | 24330 ft | 412 kts | 297° |
| 2026-04-29 14:55 | 42.95230 | 26.23873 | 24633 ft | 414 kts | 297° |
| 2026-04-29 14:55 | 42.96571 | 26.20384 | 24949 ft | 415 kts | 297° |
| 2026-04-29 14:55 | 42.97913 | 26.16889 | 25274 ft | 416 kts | 297° |
| 2026-04-29 14:56 | 42.99255 | 26.13388 | 25543 ft | 418 kts | 297° |
| 2026-04-29 14:56 | 43.00605 | 26.09864 | 25729 ft | 421 kts | 297° |
| 2026-04-29 14:56 | 43.01963 | 26.06313 | 26006 ft | 421 kts | 297° |
| 2026-04-29 14:56 | 43.03315 | 26.02776 | 26448 ft | 418 kts | 297° |
| 2026-04-29 14:57 | 43.04654 | 25.99266 | 26898 ft | 416 kts | 297° |
| 2026-04-29 14:57 | 43.05984 | 25.95774 | 27316 ft | 414 kts | 296° |
| 2026-04-29 14:57 | 43.07316 | 25.92273 | 27709 ft | 413 kts | 296° |
| 2026-04-29 14:57 | 43.08640 | 25.88792 | 28121 ft | 412 kts | 296° |
| 2026-04-29 14:58 | 43.09940 | 25.85366 | 28561 ft | 410 kts | 296° |
| 2026-04-29 14:58 | 43.11252 | 25.81907 | 28981 ft | 409 kts | 296° |
| 2026-04-29 14:58 | 43.12559 | 25.78457 | 29365 ft | 408 kts | 296° |
| 2026-04-29 14:58 | 43.13862 | 25.75014 | 29751 ft | 407 kts | 296° |
| 2026-04-29 14:59 | 43.15067 | 25.71463 | 30163 ft | 405 kts | 290° |
| 2026-04-29 14:59 | 43.15906 | 25.67856 | 30495 ft | 403 kts | 283° |
| 2026-04-29 14:59 | 43.16504 | 25.64055 | 30824 ft | 402 kts | 283° |
| 2026-04-29 14:59 | 43.17080 | 25.60367 | 31127 ft | 401 kts | 283° |
| 2026-04-29 15:00 | 43.17665 | 25.56644 | 31461 ft | 399 kts | 283° |
| 2026-04-29 15:00 | 43.18252 | 25.52939 | 31807 ft | 397 kts | 283° |
| 2026-04-29 15:00 | 43.18839 | 25.49245 | 32144 ft | 396 kts | 283° |
| 2026-04-29 15:00 | 43.19425 | 25.45561 | 32437 ft | 395 kts | 283° |
| 2026-04-29 15:01 | 43.20010 | 25.41890 | 32726 ft | 394 kts | 283° |
| 2026-04-29 15:01 | 43.20593 | 25.38226 | 33044 ft | 393 kts | 283° |
| 2026-04-29 15:01 | 43.21171 | 25.34581 | 33374 ft | 391 kts | 283° |
| 2026-04-29 15:01 | 43.21747 | 25.30949 | 33674 ft | 390 kts | 283° |
| 2026-04-29 15:02 | 43.22322 | 25.27316 | 33944 ft | 389 kts | 283° |
| 2026-04-29 15:02 | 43.22892 | 25.23702 | 34198 ft | 388 kts | 283° |
| 2026-04-29 15:02 | 43.23462 | 25.20084 | 34385 ft | 388 kts | 283° |
| 2026-04-29 15:02 | 43.24031 | 25.16465 | 34576 ft | 388 kts | 283° |
| 2026-04-29 15:03 | 43.24598 | 25.12849 | 34765 ft | 389 kts | 283° |
| 2026-04-29 15:03 | 43.25166 | 25.09215 | 34951 ft | 389 kts | 283° |
| 2026-04-29 15:03 | 43.25733 | 25.05582 | 35114 ft | 390 kts | 283° |
| 2026-04-29 15:03 | 43.26301 | 25.01935 | 35235 ft | 392 kts | 283° |
| 2026-04-29 15:04 | 43.26871 | 24.98270 | 35340 ft | 394 kts | 283° |
| 2026-04-29 15:04 | 43.27440 | 24.94595 | 35499 ft | 394 kts | 283° |
| 2026-04-29 15:04 | 43.28008 | 24.90923 | 35673 ft | 393 kts | 283° |
| 2026-04-29 15:04 | 43.28575 | 24.87249 | 35831 ft | 394 kts | 283° |
| 2026-04-29 15:05 | 43.29141 | 24.83574 | 35976 ft | 394 kts | 283° |
| 2026-04-29 15:05 | 43.30273 | 24.76195 | 36083 ft | 396 kts | 283° |
| 2026-04-29 15:06 | 43.31402 | 24.68807 | 36091 ft | 395 kts | 283° |
| 2026-04-29 15:06 | 43.32524 | 24.61424 | 36093 ft | 394 kts | 283° |
| 2026-04-29 15:07 | 43.33640 | 24.54051 | 36099 ft | 394 kts | 283° |
| 2026-04-29 15:07 | 43.34750 | 24.46684 | 36093 ft | 394 kts | 283° |
| 2026-04-29 15:08 | 43.35855 | 24.39313 | 36094 ft | 394 kts | 283° |
| 2026-04-29 15:08 | 43.36955 | 24.31948 | 36094 ft | 393 kts | 283° |
| 2026-04-29 15:09 | 43.38049 | 24.24584 | 36096 ft | 393 kts | 283° |
| 2026-04-29 15:09 | 43.39131 | 24.17267 | 36093 ft | 394 kts | 283° |
| 2026-04-29 15:10 | 43.40216 | 24.09894 | 36099 ft | 394 kts | 282° |
| 2026-04-29 15:10 | 43.41298 | 24.02507 | 36102 ft | 394 kts | 282° |
| 2026-04-29 15:11 | 43.42376 | 23.95111 | 36102 ft | 395 kts | 282° |
| 2026-04-29 15:11 | 43.43451 | 23.87702 | 36108 ft | 395 kts | 282° |
| 2026-04-29 15:12 | 43.44522 | 23.80286 | 36105 ft | 395 kts | 282° |
| 2026-04-29 15:12 | 43.45587 | 23.72872 | 36107 ft | 395 kts | 282° |
| 2026-04-29 15:13 | 43.46650 | 23.65441 | 36107 ft | 396 kts | 282° |
| 2026-04-29 15:13 | 43.47709 | 23.58002 | 36113 ft | 396 kts | 282° |
| 2026-04-29 15:14 | 43.48763 | 23.50556 | 36105 ft | 396 kts | 282° |
| 2026-04-29 15:14 | 43.49812 | 23.43116 | 36112 ft | 396 kts | 282° |
| 2026-04-29 15:15 | 43.50856 | 23.35671 | 36116 ft | 396 kts | 282° |
| 2026-04-29 15:15 | 43.52307 | 23.28379 | 36120 ft | 395 kts | 292° |
| 2026-04-29 15:16 | 43.54921 | 23.21734 | 36125 ft | 395 kts | 300° |
| 2026-04-29 15:16 | 43.57825 | 23.15285 | 36117 ft | 396 kts | 300° |
| 2026-04-29 15:17 | 43.60714 | 23.08828 | 36117 ft | 395 kts | 300° |
| 2026-04-29 15:17 | 43.63585 | 23.02360 | 36124 ft | 395 kts | 300° |
| 2026-04-29 15:18 | 43.66446 | 22.95881 | 36118 ft | 395 kts | 300° |
| 2026-04-29 15:18 | 43.69302 | 22.89398 | 36119 ft | 395 kts | 300° |
| 2026-04-29 15:19 | 43.72156 | 22.82905 | 36123 ft | 395 kts | 300° |
| 2026-04-29 15:19 | 43.74988 | 22.76447 | 36123 ft | 395 kts | 300° |
| 2026-04-29 15:20 | 43.77855 | 22.69897 | 36121 ft | 395 kts | 300° |
| 2026-04-29 15:20 | 43.80696 | 22.63389 | 36127 ft | 395 kts | 299° |
| 2026-04-29 15:21 | 43.83515 | 22.56919 | 36128 ft | 395 kts | 300° |
| 2026-04-29 15:21 | 43.86366 | 22.50358 | 36126 ft | 395 kts | 299° |
| 2026-04-29 15:22 | 43.89178 | 22.43877 | 36132 ft | 395 kts | 299° |
| 2026-04-29 15:22 | 43.91757 | 22.37175 | 36120 ft | 394 kts | 290° |
| 2026-04-29 15:23 | 43.93520 | 22.29988 | 36125 ft | 394 kts | 289° |
| 2026-04-29 15:23 | 43.95281 | 22.22786 | 36130 ft | 394 kts | 289° |
| 2026-04-29 15:24 | 43.97047 | 22.15595 | 36136 ft | 394 kts | 289° |
| 2026-04-29 15:24 | 43.98815 | 22.08397 | 36134 ft | 394 kts | 289° |
| 2026-04-29 15:25 | 44.00581 | 22.01194 | 36133 ft | 394 kts | 289° |
| 2026-04-29 15:25 | 44.02343 | 21.93985 | 36145 ft | 394 kts | 289° |
| 2026-04-29 15:26 | 44.04101 | 21.86768 | 36145 ft | 394 kts | 289° |
| 2026-04-29 15:26 | 44.05857 | 21.79540 | 36143 ft | 394 kts | 289° |
| 2026-04-29 15:27 | 44.07607 | 21.72309 | 36150 ft | 395 kts | 289° |
| 2026-04-29 15:27 | 44.09350 | 21.65086 | 36148 ft | 394 kts | 289° |
| 2026-04-29 15:28 | 44.11089 | 21.57856 | 36138 ft | 395 kts | 289° |
| 2026-04-29 15:28 | 44.12828 | 21.50603 | 36145 ft | 395 kts | 288° |
| 2026-04-29 15:29 | 44.14561 | 21.43353 | 36154 ft | 395 kts | 288° |
| 2026-04-29 15:30 | 44.17724 | 21.30056 | 36158 ft | 395 kts | 288° |
| 2026-04-29 15:30 | 44.19445 | 21.22787 | 36161 ft | 395 kts | 288° |
| 2026-04-29 15:31 | 44.21160 | 21.15520 | 36160 ft | 395 kts | 288° |
| 2026-04-29 15:31 | 44.22873 | 21.08240 | 36164 ft | 395 kts | 288° |
| 2026-04-29 15:32 | 44.24581 | 21.00955 | 36170 ft | 395 kts | 288° |
| 2026-04-29 15:32 | 44.26285 | 20.93665 | 36175 ft | 395 kts | 288° |
| 2026-04-29 15:33 | 44.27986 | 20.86361 | 36178 ft | 396 kts | 288° |
| 2026-04-29 15:33 | 44.29683 | 20.79052 | 36175 ft | 397 kts | 288° |
| 2026-04-29 15:34 | 44.31378 | 20.71726 | 36167 ft | 396 kts | 288° |
| 2026-04-29 15:34 | 44.33065 | 20.64413 | 36174 ft | 395 kts | 288° |
| 2026-04-29 15:35 | 44.34745 | 20.57100 | 36181 ft | 395 kts | 288° |
| 2026-04-29 15:35 | 44.36420 | 20.49789 | 36182 ft | 395 kts | 288° |
| 2026-04-29 15:36 | 44.38079 | 20.42525 | 36183 ft | 395 kts | 288° |
| 2026-04-29 15:36 | 44.39745 | 20.35202 | 36186 ft | 396 kts | 288° |
| 2026-04-29 15:37 | 44.41409 | 20.27864 | 36187 ft | 396 kts | 288° |
| 2026-04-29 15:37 | 44.43065 | 20.20535 | 36185 ft | 395 kts | 288° |
| 2026-04-29 15:38 | 44.44719 | 20.13192 | 36186 ft | 395 kts | 288° |
| 2026-04-29 15:38 | 44.46369 | 20.05843 | 36192 ft | 396 kts | 288° |
| 2026-04-29 15:39 | 44.48013 | 19.98493 | 36188 ft | 396 kts | 288° |
| 2026-04-29 15:39 | 44.49652 | 19.91141 | 36190 ft | 396 kts | 288° |
| 2026-04-29 15:40 | 44.51289 | 19.83776 | 36191 ft | 396 kts | 287° |
| 2026-04-29 15:40 | 44.52919 | 19.76410 | 36195 ft | 396 kts | 287° |
| 2026-04-29 15:41 | 44.54545 | 19.69042 | 36199 ft | 396 kts | 287° |
| 2026-04-29 15:41 | 44.56166 | 19.61668 | 36196 ft | 396 kts | 287° |
| 2026-04-29 15:42 | 44.57782 | 19.54291 | 36192 ft | 396 kts | 287° |
| 2026-04-29 15:42 | 44.59382 | 19.46964 | 36200 ft | 395 kts | 287° |
| 2026-04-29 15:43 | 44.60990 | 19.39580 | 36206 ft | 396 kts | 287° |
| 2026-04-29 15:43 | 44.62619 | 19.32206 | 36205 ft | 396 kts | 288° |
| 2026-04-29 15:44 | 44.64323 | 19.24854 | 36201 ft | 396 kts | 288° |
| 2026-04-29 15:44 | 44.66028 | 19.17511 | 36211 ft | 396 kts | 288° |
| 2026-04-29 15:45 | 44.67722 | 19.10156 | 36212 ft | 396 kts | 288° |
| 2026-04-29 15:45 | 44.69407 | 19.02792 | 36212 ft | 396 kts | 288° |
| 2026-04-29 15:46 | 44.71085 | 18.95429 | 36205 ft | 396 kts | 288° |
| 2026-04-29 15:46 | 44.72759 | 18.88055 | 36207 ft | 396 kts | 288° |
| 2026-04-29 15:47 | 44.74429 | 18.80673 | 36203 ft | 396 kts | 288° |
| 2026-04-29 15:47 | 44.76095 | 18.73288 | 36211 ft | 396 kts | 288° |
| 2026-04-29 15:48 | 44.77758 | 18.65887 | 36214 ft | 397 kts | 288° |
| 2026-04-29 15:48 | 44.79417 | 18.58479 | 36218 ft | 397 kts | 288° |
| 2026-04-29 15:49 | 44.81072 | 18.51061 | 36219 ft | 397 kts | 287° |
| 2026-04-29 15:49 | 44.82723 | 18.43639 | 36221 ft | 397 kts | 287° |
| 2026-04-29 15:50 | 44.84368 | 18.36215 | 36219 ft | 397 kts | 287° |
| 2026-04-29 15:50 | 44.86010 | 18.28781 | 36223 ft | 397 kts | 287° |
| 2026-04-29 15:51 | 44.87648 | 18.21339 | 36218 ft | 398 kts | 287° |
| 2026-04-29 15:51 | 44.89284 | 18.13878 | 36221 ft | 398 kts | 287° |
| 2026-04-29 15:52 | 44.90915 | 18.06412 | 36214 ft | 398 kts | 287° |
| 2026-04-29 15:52 | 44.92541 | 17.98944 | 36215 ft | 398 kts | 287° |
| 2026-04-29 15:53 | 44.94165 | 17.91460 | 36221 ft | 399 kts | 287° |
| 2026-04-29 15:53 | 44.95782 | 17.83981 | 36216 ft | 399 kts | 287° |
| 2026-04-29 15:54 | 44.97396 | 17.76489 | 36213 ft | 399 kts | 287° |
| 2026-04-29 15:54 | 44.99005 | 17.68991 | 36219 ft | 399 kts | 287° |
| 2026-04-29 15:55 | 45.00609 | 17.61491 | 36214 ft | 399 kts | 287° |
| 2026-04-29 15:55 | 45.02201 | 17.54021 | 36210 ft | 399 kts | 287° |
| 2026-04-29 15:56 | 45.03809 | 17.46451 | 36216 ft | 400 kts | 287° |
| 2026-04-29 15:56 | 45.05401 | 17.38922 | 36222 ft | 400 kts | 287° |
| 2026-04-29 15:57 | 45.06981 | 17.31427 | 36202 ft | 400 kts | 287° |
| 2026-04-29 15:57 | 45.08565 | 17.23886 | 36209 ft | 400 kts | 287° |
| 2026-04-29 15:58 | 45.10143 | 17.16343 | 36213 ft | 399 kts | 287° |
| 2026-04-29 15:58 | 45.11714 | 17.08804 | 36218 ft | 399 kts | 287° |
| 2026-04-29 15:59 | 45.13281 | 17.01260 | 36223 ft | 399 kts | 287° |
| 2026-04-29 15:59 | 45.14843 | 16.93709 | 36225 ft | 400 kts | 286° |
| 2026-04-29 16:00 | 45.16403 | 16.86142 | 36225 ft | 400 kts | 286° |
| 2026-04-29 16:00 | 45.17958 | 16.78568 | 36224 ft | 400 kts | 286° |
| 2026-04-29 16:01 | 45.19511 | 16.70982 | 36223 ft | 401 kts | 286° |
| 2026-04-29 16:01 | 45.21103 | 16.63408 | 36226 ft | 401 kts | 287° |
| 2026-04-29 16:02 | 45.22808 | 16.55883 | 36228 ft | 401 kts | 288° |
| 2026-04-29 16:02 | 45.24524 | 16.48352 | 36242 ft | 401 kts | 288° |
| 2026-04-29 16:03 | 45.26222 | 16.40816 | 36226 ft | 401 kts | 288° |
| 2026-04-29 16:03 | 45.27908 | 16.33275 | 36238 ft | 401 kts | 287° |
| 2026-04-29 16:04 | 45.29585 | 16.25729 | 36229 ft | 401 kts | 287° |
| 2026-04-29 16:04 | 45.31249 | 16.18214 | 36241 ft | 401 kts | 287° |
| 2026-04-29 16:05 | 45.32918 | 16.10656 | 36241 ft | 401 kts | 287° |
| 2026-04-29 16:05 | 45.34581 | 16.03096 | 36227 ft | 401 kts | 287° |
| 2026-04-29 16:06 | 45.36242 | 15.95517 | 36243 ft | 402 kts | 287° |
| 2026-04-29 16:06 | 45.37901 | 15.87921 | 36240 ft | 402 kts | 287° |
| 2026-04-29 16:07 | 45.39555 | 15.80316 | 36237 ft | 403 kts | 287° |
| 2026-04-29 16:07 | 45.41206 | 15.72703 | 36247 ft | 403 kts | 287° |
| 2026-04-29 16:08 | 45.42854 | 15.65071 | 36248 ft | 404 kts | 287° |
| 2026-04-29 16:08 | 45.44503 | 15.57409 | 36241 ft | 405 kts | 287° |
| 2026-04-29 16:09 | 45.46150 | 15.49728 | 36241 ft | 406 kts | 287° |
| 2026-04-29 16:09 | 45.47795 | 15.42025 | 36235 ft | 407 kts | 287° |
| 2026-04-29 16:10 | 45.49437 | 15.34311 | 36242 ft | 407 kts | 287° |
| 2026-04-29 16:10 | 45.51075 | 15.26586 | 36224 ft | 407 kts | 287° |
| 2026-04-29 16:11 | 45.52704 | 15.18872 | 36237 ft | 406 kts | 287° |
| 2026-04-29 16:11 | 45.54330 | 15.11144 | 36222 ft | 406 kts | 287° |
| 2026-04-29 16:12 | 45.55950 | 15.03415 | 36226 ft | 408 kts | 287° |
| 2026-04-29 16:12 | 45.57572 | 14.95651 | 36213 ft | 408 kts | 287° |
| 2026-04-29 16:13 | 45.59186 | 14.87892 | 36210 ft | 408 kts | 287° |
| 2026-04-29 16:13 | 45.60795 | 14.80125 | 36202 ft | 407 kts | 287° |
| 2026-04-29 16:14 | 45.62396 | 14.72370 | 36201 ft | 407 kts | 287° |
| 2026-04-29 16:14 | 45.63982 | 14.64658 | 36195 ft | 408 kts | 287° |
| 2026-04-29 16:15 | 45.65588 | 14.56821 | 36196 ft | 409 kts | 287° |
| 2026-04-29 16:15 | 45.67182 | 14.49007 | 36192 ft | 409 kts | 287° |
| 2026-04-29 16:16 | 45.68503 | 14.42508 | 36180 ft | 410 kts | 287° |
| 2026-04-29 16:16 | 45.70348 | 14.33403 | 36175 ft | 411 kts | 287° |
| 2026-04-29 16:17 | 45.71932 | 14.25548 | 36167 ft | 411 kts | 286° |
| 2026-04-29 16:17 | 45.73255 | 14.18960 | 36158 ft | 412 kts | 287° |
| 2026-04-29 16:18 | 45.74833 | 14.11079 | 36167 ft | 412 kts | 286° |
| 2026-04-29 16:18 | 45.76407 | 14.03185 | 36158 ft | 412 kts | 286° |
| 2026-04-29 16:19 | 45.77972 | 13.95302 | 36151 ft | 413 kts | 286° |
| 2026-04-29 16:19 | 45.79542 | 13.87365 | 36145 ft | 414 kts | 286° |
| 2026-04-29 16:20 | 45.81095 | 13.79480 | 36138 ft | 414 kts | 286° |
| 2026-04-29 16:20 | 45.82655 | 13.71529 | 36127 ft | 414 kts | 286° |
| 2026-04-29 16:21 | 45.84221 | 13.63519 | 36145 ft | 415 kts | 286° |
| 2026-04-29 16:21 | 45.85875 | 13.55651 | 36133 ft | 415 kts | 289° |
| 2026-04-29 16:22 | 45.87845 | 13.47855 | 36134 ft | 416 kts | 290° |
| 2026-04-29 16:22 | 45.89852 | 13.40075 | 36122 ft | 416 kts | 290° |
| 2026-04-29 16:23 | 45.91832 | 13.32282 | 36131 ft | 416 kts | 290° |
| 2026-04-29 16:23 | 45.93793 | 13.24470 | 36122 ft | 416 kts | 290° |
| 2026-04-29 16:24 | 45.95743 | 13.16651 | 36131 ft | 415 kts | 290° |
| 2026-04-29 16:24 | 45.97690 | 13.08816 | 36132 ft | 417 kts | 290° |
| 2026-04-29 16:25 | 45.99638 | 13.00947 | 36128 ft | 419 kts | 290° |
| 2026-04-29 16:25 | 46.01588 | 12.93048 | 36147 ft | 420 kts | 290° |
| 2026-04-29 16:26 | 46.03532 | 12.85140 | 36127 ft | 418 kts | 290° |
| 2026-04-29 16:26 | 46.05465 | 12.77254 | 36131 ft | 417 kts | 290° |
| 2026-04-29 16:27 | 46.07389 | 12.69375 | 36133 ft | 417 kts | 290° |
| 2026-04-29 16:27 | 46.09303 | 12.61511 | 36137 ft | 416 kts | 290° |
| 2026-04-29 16:28 | 46.11210 | 12.53647 | 36144 ft | 415 kts | 289° |
| 2026-04-29 16:28 | 46.13111 | 12.45779 | 36137 ft | 415 kts | 290° |
| 2026-04-29 16:29 | 46.15009 | 12.37899 | 36134 ft | 417 kts | 289° |
| 2026-04-29 16:29 | 46.16906 | 12.29991 | 36144 ft | 418 kts | 289° |
| 2026-04-29 16:30 | 46.18795 | 12.22092 | 36136 ft | 419 kts | 289° |
| 2026-04-29 16:30 | 46.20703 | 12.14081 | 36126 ft | 419 kts | 289° |
| 2026-04-29 16:31 | 46.22589 | 12.06136 | 36134 ft | 418 kts | 289° |
| 2026-04-29 16:31 | 46.24470 | 11.98189 | 36125 ft | 418 kts | 289° |
| 2026-04-29 16:32 | 46.26331 | 11.90289 | 36123 ft | 418 kts | 289° |
| 2026-04-29 16:32 | 46.28197 | 11.82337 | 36123 ft | 418 kts | 289° |
| 2026-04-29 16:33 | 46.31001 | 11.70341 | 36137 ft | 418 kts | 289° |
| 2026-04-29 16:33 | 46.32855 | 11.62373 | 36121 ft | 418 kts | 289° |
| 2026-04-29 16:34 | 46.34690 | 11.54458 | 36133 ft | 417 kts | 289° |
| 2026-04-29 16:34 | 46.36529 | 11.46494 | 36125 ft | 417 kts | 289° |
| 2026-04-29 16:35 | 46.38367 | 11.38515 | 36126 ft | 417 kts | 289° |
| 2026-04-29 16:35 | 46.39880 | 11.30405 | 36128 ft | 419 kts | 279° |
| 2026-04-29 16:36 | 46.39946 | 11.21969 | 36126 ft | 422 kts | 266° |
| 2026-04-29 16:36 | 46.39179 | 11.13535 | 36181 ft | 423 kts | 265° |
| 2026-04-29 16:37 | 46.38375 | 11.05096 | 36186 ft | 423 kts | 265° |
| 2026-04-29 16:37 | 46.37720 | 10.98073 | 36187 ft | 423 kts | 265° |
| 2026-04-29 16:38 | 46.36813 | 10.88193 | 36185 ft | 423 kts | 265° |
| 2026-04-29 16:38 | 46.36039 | 10.79762 | 36173 ft | 423 kts | 265° |
| 2026-04-29 16:39 | 46.35256 | 10.71305 | 36170 ft | 423 kts | 265° |
| 2026-04-29 16:39 | 46.34468 | 10.62860 | 36174 ft | 424 kts | 265° |
| 2026-04-29 16:40 | 46.33672 | 10.54391 | 36167 ft | 425 kts | 265° |
| 2026-04-29 16:40 | 46.32868 | 10.45924 | 36162 ft | 425 kts | 265° |
| 2026-04-29 16:41 | 46.32056 | 10.37446 | 36163 ft | 425 kts | 265° |
| 2026-04-29 16:41 | 46.31237 | 10.28958 | 36152 ft | 427 kts | 265° |
| 2026-04-29 16:42 | 46.30417 | 10.20519 | 36138 ft | 426 kts | 265° |
| 2026-04-29 16:42 | 46.29586 | 10.12037 | 36144 ft | 426 kts | 264° |
| 2026-04-29 16:43 | 46.28747 | 10.03540 | 36142 ft | 427 kts | 264° |
| 2026-04-29 16:43 | 46.27903 | 9.95059 | 36152 ft | 426 kts | 264° |
| 2026-04-29 16:44 | 46.27051 | 9.86565 | 36125 ft | 427 kts | 264° |
| 2026-04-29 16:44 | 46.26195 | 9.78097 | 36127 ft | 425 kts | 264° |
| 2026-04-29 16:45 | 46.25336 | 9.69667 | 36146 ft | 424 kts | 264° |
| 2026-04-29 16:45 | 46.24471 | 9.61224 | 36124 ft | 425 kts | 264° |
| 2026-04-29 16:46 | 46.23598 | 9.52766 | 36115 ft | 427 kts | 264° |
| 2026-04-29 16:46 | 46.22714 | 9.44281 | 36106 ft | 428 kts | 264° |
| 2026-04-29 16:47 | 46.21822 | 9.35785 | 36094 ft | 428 kts | 264° |
| 2026-04-29 16:47 | 46.20925 | 9.27291 | 36098 ft | 429 kts | 264° |
| 2026-04-29 16:48 | 46.20019 | 9.18780 | 36088 ft | 428 kts | 264° |
| 2026-04-29 16:48 | 46.19107 | 9.10275 | 36076 ft | 429 kts | 264° |
| 2026-04-29 16:49 | 46.18189 | 9.01771 | 36079 ft | 429 kts | 264° |
| 2026-04-29 16:49 | 46.17266 | 8.93269 | 36072 ft | 428 kts | 264° |
| 2026-04-29 16:50 | 46.16357 | 8.84842 | 36066 ft | 427 kts | 264° |
| 2026-04-29 16:50 | 46.15519 | 8.76310 | 36076 ft | 427 kts | 264° |
| 2026-04-29 16:51 | 46.14703 | 8.67880 | 36113 ft | 422 kts | 264° |
| 2026-04-29 16:51 | 46.13883 | 8.59523 | 36085 ft | 425 kts | 264° |
| 2026-04-29 16:52 | 46.13042 | 8.51080 | 36078 ft | 426 kts | 264° |
| 2026-04-29 16:52 | 46.12190 | 8.42616 | 36098 ft | 427 kts | 264° |
| 2026-04-29 16:53 | 46.11328 | 8.34131 | 36094 ft | 429 kts | 264° |
| 2026-04-29 16:53 | 46.10457 | 8.25624 | 36092 ft | 429 kts | 264° |
| 2026-04-29 16:54 | 46.09580 | 8.17116 | 36102 ft | 429 kts | 264° |
| 2026-04-29 16:54 | 46.08698 | 8.08627 | 36113 ft | 428 kts | 264° |
| 2026-04-29 16:55 | 46.07807 | 8.00136 | 36106 ft | 429 kts | 263° |
| 2026-04-29 16:55 | 46.06913 | 7.91642 | 36121 ft | 428 kts | 264° |
| 2026-04-29 16:56 | 46.06123 | 7.84194 | 36131 ft | 427 kts | 264° |
| 2026-04-29 16:56 | 46.05220 | 7.75738 | 36129 ft | 428 kts | 264° |
| 2026-04-29 16:57 | 46.04310 | 7.67281 | 36107 ft | 426 kts | 263° |
| 2026-04-29 16:57 | 46.03397 | 7.58859 | 36110 ft | 426 kts | 263° |
| 2026-04-29 16:58 | 46.02476 | 7.50432 | 36100 ft | 425 kts | 263° |
| 2026-04-29 16:58 | 46.01554 | 7.42046 | 36098 ft | 424 kts | 263° |
| 2026-04-29 16:59 | 46.00626 | 7.33667 | 36107 ft | 424 kts | 263° |
| 2026-04-29 16:59 | 45.99694 | 7.25300 | 36093 ft | 424 kts | 263° |
| 2026-04-29 17:00 | 45.98756 | 7.16943 | 36091 ft | 424 kts | 263° |
| 2026-04-29 17:00 | 45.97817 | 7.08636 | 36095 ft | 424 kts | 263° |
| 2026-04-29 17:01 | 45.96867 | 7.00286 | 36102 ft | 423 kts | 263° |
| 2026-04-29 17:01 | 45.95910 | 6.91931 | 36109 ft | 424 kts | 262° |
| 2026-04-29 17:02 | 45.94945 | 6.83560 | 36107 ft | 425 kts | 262° |
| 2026-04-29 17:02 | 45.93975 | 6.75199 | 36092 ft | 425 kts | 262° |
| 2026-04-29 17:03 | 45.93156 | 6.68187 | 36086 ft | 424 kts | 262° |
| 2026-04-29 17:03 | 45.92173 | 6.59827 | 36076 ft | 425 kts | 262° |
| 2026-04-29 17:04 | 45.91183 | 6.51456 | 36067 ft | 425 kts | 262° |
| 2026-04-29 17:04 | 45.90193 | 6.43140 | 36058 ft | 426 kts | 262° |
| 2026-04-29 17:05 | 45.89189 | 6.34756 | 36052 ft | 426 kts | 262° |
| 2026-04-29 17:05 | 45.88179 | 6.26375 | 36048 ft | 426 kts | 262° |
| 2026-04-29 17:06 | 45.87164 | 6.18008 | 36056 ft | 426 kts | 262° |
| 2026-04-29 17:06 | 45.86143 | 6.09636 | 36052 ft | 426 kts | 262° |
| 2026-04-29 17:07 | 45.84404 | 6.01507 | 36044 ft | 430 kts | 246° |
| 2026-04-29 17:07 | 45.81448 | 5.94032 | 36042 ft | 431 kts | 242° |
| 2026-04-29 17:08 | 45.78430 | 5.86624 | 36016 ft | 430 kts | 243° |
| 2026-04-29 17:08 | 45.75445 | 5.79195 | 36022 ft | 431 kts | 243° |
| 2026-04-29 17:09 | 45.72468 | 5.71754 | 36013 ft | 430 kts | 243° |
| 2026-04-29 17:09 | 45.69521 | 5.64316 | 36012 ft | 429 kts | 248° |
| 2026-04-29 17:10 | 45.68582 | 5.60300 | 36024 ft | 424 kts | 260° |
| 2026-04-29 17:10 | 45.68224 | 5.56128 | 36012 ft | 423 kts | 270° |
| 2026-04-29 17:10 | 45.68442 | 5.51956 | 36019 ft | 422 kts | 281° |
| 2026-04-29 17:10 | 45.69039 | 5.47847 | 36021 ft | 422 kts | 282° |
| 2026-04-29 17:11 | 45.70284 | 5.39642 | 36008 ft | 422 kts | 282° |
| 2026-04-29 17:11 | 45.71472 | 5.31459 | 36006 ft | 423 kts | 281° |
| 2026-04-29 17:12 | 45.72636 | 5.23189 | 36000 ft | 424 kts | 281° |
| 2026-04-29 17:12 | 45.73605 | 5.16259 | 35997 ft | 424 kts | 280° |
| 2026-04-29 17:13 | 45.73789 | 5.10686 | 36008 ft | 424 kts | 264° |
| 2026-04-29 17:13 | 45.73250 | 5.06528 | 35989 ft | 426 kts | 255° |
| 2026-04-29 17:13 | 45.72183 | 5.02571 | 35984 ft | 429 kts | 244° |
| 2026-04-29 17:13 | 45.70710 | 4.98855 | 35984 ft | 431 kts | 242° |
| 2026-04-29 17:14 | 45.67710 | 4.91442 | 35984 ft | 430 kts | 243° |
| 2026-04-29 17:14 | 45.64885 | 4.83923 | 35989 ft | 428 kts | 245° |
| 2026-04-29 17:15 | 45.62237 | 4.76313 | 35989 ft | 428 kts | 245° |
| 2026-04-29 17:15 | 45.59576 | 4.68711 | 35997 ft | 427 kts | 245° |
| 2026-04-29 17:16 | 45.56889 | 4.61140 | 36002 ft | 427 kts | 245° |
| 2026-04-29 17:16 | 45.54193 | 4.53580 | 35997 ft | 427 kts | 245° |
| 2026-04-29 17:17 | 45.51491 | 4.46028 | 35998 ft | 427 kts | 244° |
| 2026-04-29 17:17 | 45.50334 | 4.42148 | 35982 ft | 425 kts | 256° |
| 2026-04-29 17:17 | 45.49849 | 4.38012 | 36010 ft | 423 kts | 267° |
| 2026-04-29 17:18 | 45.50588 | 4.29738 | 36017 ft | 424 kts | 285° |
| 2026-04-29 17:18 | 45.52258 | 4.21672 | 35999 ft | 424 kts | 285° |
| 2026-04-29 17:19 | 45.53930 | 4.13598 | 35987 ft | 425 kts | 285° |
| 2026-04-29 17:19 | 45.55566 | 4.05505 | 35993 ft | 425 kts | 284° |
| 2026-04-29 17:20 | 45.57181 | 3.97390 | 35998 ft | 425 kts | 284° |
| 2026-04-29 17:20 | 45.58785 | 3.89264 | 35997 ft | 426 kts | 284° |
| 2026-04-29 17:21 | 45.60385 | 3.81129 | 35992 ft | 426 kts | 284° |
| 2026-04-29 17:21 | 45.61986 | 3.72956 | 35997 ft | 427 kts | 284° |
| 2026-04-29 17:22 | 45.63581 | 3.64781 | 35981 ft | 428 kts | 284° |
| 2026-04-29 17:22 | 45.65174 | 3.56583 | 35974 ft | 428 kts | 284° |
| 2026-04-29 17:23 | 45.66760 | 3.48382 | 35955 ft | 428 kts | 284° |
| 2026-04-29 17:23 | 45.68341 | 3.40173 | 35949 ft | 428 kts | 284° |
| 2026-04-29 17:24 | 45.69915 | 3.31967 | 35943 ft | 428 kts | 283° |
| 2026-04-29 17:24 | 45.71485 | 3.23748 | 35940 ft | 428 kts | 283° |
| 2026-04-29 17:25 | 45.73046 | 3.15538 | 35941 ft | 428 kts | 283° |
| 2026-04-29 17:25 | 45.74603 | 3.07312 | 35938 ft | 428 kts | 283° |
| 2026-04-29 17:26 | 45.76151 | 2.99105 | 35939 ft | 427 kts | 283° |
| 2026-04-29 17:26 | 45.77693 | 2.90885 | 35954 ft | 427 kts | 283° |
| 2026-04-29 17:27 | 45.79229 | 2.82666 | 35950 ft | 427 kts | 283° |
| 2026-04-29 17:27 | 45.80749 | 2.74494 | 35958 ft | 427 kts | 283° |
| 2026-04-29 17:28 | 45.82274 | 2.66263 | 35958 ft | 427 kts | 283° |
| 2026-04-29 17:28 | 45.83794 | 2.58021 | 35958 ft | 428 kts | 282° |
| 2026-04-29 17:29 | 45.85307 | 2.49777 | 35955 ft | 428 kts | 282° |
| 2026-04-29 17:29 | 45.86563 | 2.42910 | 35959 ft | 428 kts | 282° |
| 2026-04-29 17:30 | 45.88323 | 2.33242 | 35954 ft | 429 kts | 282° |
| 2026-04-29 17:30 | 45.89822 | 2.24963 | 35951 ft | 429 kts | 282° |
| 2026-04-29 17:31 | 45.91320 | 2.16656 | 35949 ft | 430 kts | 282° |
| 2026-04-29 17:31 | 45.92812 | 2.08344 | 35945 ft | 430 kts | 282° |
| 2026-04-29 17:32 | 45.94300 | 2.00017 | 35950 ft | 431 kts | 282° |
| 2026-04-29 17:32 | 45.95786 | 1.91667 | 35942 ft | 431 kts | 282° |
| 2026-04-29 17:33 | 45.97285 | 1.83320 | 35933 ft | 432 kts | 282° |
| 2026-04-29 17:33 | 45.98899 | 1.75013 | 35943 ft | 432 kts | 283° |
| 2026-04-29 17:34 | 46.00534 | 1.66702 | 35939 ft | 432 kts | 283° |
| 2026-04-29 17:34 | 46.02154 | 1.58370 | 35943 ft | 432 kts | 283° |
| 2026-04-29 17:35 | 46.04562 | 1.45844 | 35939 ft | 433 kts | 282° |
| 2026-04-29 17:36 | 46.06159 | 1.37471 | 35935 ft | 434 kts | 282° |
| 2026-04-29 17:36 | 46.07753 | 1.29085 | 35940 ft | 434 kts | 282° |
| 2026-04-29 17:37 | 46.09342 | 1.20681 | 35938 ft | 435 kts | 282° |
| 2026-04-29 17:37 | 46.10927 | 1.12266 | 35931 ft | 435 kts | 282° |
| 2026-04-29 17:38 | 46.12508 | 1.03837 | 35938 ft | 436 kts | 282° |
| 2026-04-29 17:38 | 46.14072 | 0.95452 | 35923 ft | 436 kts | 282° |
| 2026-04-29 17:39 | 46.15655 | 0.86937 | 35921 ft | 436 kts | 282° |
| 2026-04-29 17:39 | 46.17219 | 0.78481 | 35918 ft | 437 kts | 282° |
| 2026-04-29 17:40 | 46.18768 | 0.70068 | 35918 ft | 437 kts | 281° |
| 2026-04-29 17:40 | 46.20321 | 0.61597 | 35918 ft | 437 kts | 281° |
| 2026-04-29 17:41 | 46.21867 | 0.53120 | 35919 ft | 437 kts | 281° |
| 2026-04-29 17:41 | 46.23409 | 0.44633 | 35912 ft | 437 kts | 281° |
| 2026-04-29 17:42 | 46.24939 | 0.36172 | 35890 ft | 427 kts | 281° |
| 2026-04-29 17:42 | 46.25677 | 0.32100 | 35894 ft | 412 kts | 281° |
| 2026-04-29 17:42 | 46.26388 | 0.28161 | 35891 ft | 398 kts | 281° |
| 2026-04-29 17:42 | 46.27073 | 0.24358 | 35891 ft | 384 kts | 280° |
| 2026-04-29 17:43 | 46.27732 | 0.20681 | 35888 ft | 372 kts | 280° |
| 2026-04-29 17:43 | 46.28367 | 0.17133 | 35897 ft | 359 kts | 280° |
| 2026-04-29 17:43 | 46.28988 | 0.13639 | 35924 ft | 360 kts | 280° |
| 2026-04-29 17:44 | 46.30245 | 0.06510 | 35929 ft | 373 kts | 280° |
| 2026-04-29 17:44 | 46.30897 | 0.02799 | 35082 ft | 391 kts | 279° |
| 2026-04-29 17:44 | 46.31575 | -0.01070 | 34012 ft | 402 kts | 279° |
| 2026-04-29 17:44 | 46.32274 | -0.05039 | 32808 ft | 411 kts | 280° |
| 2026-04-29 17:45 | 46.32987 | -0.09088 | 31662 ft | 419 kts | 280° |
| 2026-04-29 17:45 | 46.33712 | -0.13205 | 30548 ft | 426 kts | 281° |
| 2026-04-29 17:45 | 46.34447 | -0.17387 | 29393 ft | 431 kts | 281° |
| 2026-04-29 17:45 | 46.35188 | -0.21615 | 28183 ft | 435 kts | 281° |
| 2026-04-29 17:46 | 46.35933 | -0.25872 | 27009 ft | 437 kts | 281° |
| 2026-04-29 17:46 | 46.36678 | -0.30145 | 25877 ft | 439 kts | 281° |
| 2026-04-29 17:46 | 46.37421 | -0.34419 | 24806 ft | 439 kts | 281° |
| 2026-04-29 17:46 | 46.38167 | -0.38722 | 23745 ft | 439 kts | 281° |
| 2026-04-29 17:47 | 46.38909 | -0.43016 | 22539 ft | 440 kts | 281° |
| 2026-04-29 17:47 | 46.39649 | -0.47310 | 21320 ft | 439 kts | 281° |
| 2026-04-29 17:47 | 46.40384 | -0.51576 | 20356 ft | 433 kts | 281° |
| 2026-04-29 17:47 | 46.41105 | -0.55770 | 19613 ft | 423 kts | 281° |
| 2026-04-29 17:48 | 46.41804 | -0.59850 | 18955 ft | 412 kts | 281° |
| 2026-04-29 17:48 | 46.42333 | -0.62474 | 18546 ft | 407 kts | 288° |
| 2026-04-29 17:48 | 46.43581 | -0.66142 | 17905 ft | 407 kts | 300° |
| 2026-04-29 17:48 | 46.45283 | -0.69455 | 17017 ft | 415 kts | 311° |
| 2026-04-29 17:49 | 46.47416 | -0.72329 | 16186 ft | 421 kts | 318° |
| 2026-04-29 17:49 | 46.49651 | -0.75076 | 15533 ft | 419 kts | 318° |
| 2026-04-29 17:49 | 46.51854 | -0.77813 | 14921 ft | 416 kts | 317° |
| 2026-04-29 17:49 | 46.54028 | -0.80576 | 14335 ft | 413 kts | 317° |
| 2026-04-29 17:50 | 46.56143 | -0.83359 | 13730 ft | 410 kts | 312° |
| 2026-04-29 17:50 | 46.57723 | -0.86761 | 13093 ft | 403 kts | 292° |
| 2026-04-29 17:50 | 46.58507 | -0.90596 | 12496 ft | 394 kts | 274° |
| 2026-04-29 17:50 | 46.58689 | -0.94539 | 11945 ft | 388 kts | 269° |
| 2026-04-29 17:51 | 46.58782 | -0.98439 | 11373 ft | 385 kts | 268° |
| 2026-04-29 17:51 | 46.58864 | -1.02304 | 10977 ft | 378 kts | 268° |
| 2026-04-29 17:51 | 46.58954 | -1.06057 | 10819 ft | 365 kts | 268° |
| 2026-04-29 17:51 | 46.59050 | -1.09678 | 10653 ft | 353 kts | 268° |
| 2026-04-29 17:52 | 46.59149 | -1.13193 | 10496 ft | 342 kts | 269° |
| 2026-04-29 17:52 | 46.59215 | -1.15459 | 10404 ft | 336 kts | 268° |
| 2026-04-29 17:52 | 46.59345 | -1.19905 | 10205 ft | 323 kts | 268° |
| 2026-04-29 17:52 | 46.59439 | -1.23118 | 10084 ft | 314 kts | 268° |
| 2026-04-29 17:53 | 46.59530 | -1.26249 | 9962 ft | 307 kts | 268° |
| 2026-04-29 17:53 | 46.59618 | -1.29309 | 9906 ft | 297 kts | 268° |
| 2026-04-29 17:53 | 46.59702 | -1.32266 | 9760 ft | 292 kts | 268° |
| 2026-04-29 17:53 | 46.59866 | -1.35302 | 9139 ft | 308 kts | 279° |
| 2026-04-29 17:54 | 46.60791 | -1.38136 | 8775 ft | 316 kts | 308° |
| 2026-04-29 17:54 | 46.62520 | -1.40079 | 8460 ft | 317 kts | 336° |
| 2026-04-29 17:54 | 46.64622 | -1.41017 | 8157 ft | 315 kts | 347° |
| 2026-04-29 17:54 | 46.66749 | -1.41778 | 7824 ft | 315 kts | 347° |
| 2026-04-29 17:55 | 46.68873 | -1.42548 | 7500 ft | 315 kts | 347° |
| 2026-04-29 17:55 | 46.70975 | -1.43442 | 7175 ft | 315 kts | 337° |
| 2026-04-29 17:55 | 46.72788 | -1.45153 | 6870 ft | 314 kts | 322° |
| 2026-04-29 17:55 | 46.74518 | -1.47165 | 6530 ft | 315 kts | 321° |
| 2026-04-29 17:56 | 46.76225 | -1.49179 | 6205 ft | 315 kts | 321° |
| 2026-04-29 17:56 | 46.77925 | -1.51182 | 5881 ft | 314 kts | 321° |
| 2026-04-29 17:56 | 46.79630 | -1.53178 | 5558 ft | 313 kts | 322° |
| 2026-04-29 17:56 | 46.81331 | -1.55161 | 5233 ft | 313 kts | 322° |
| 2026-04-29 17:57 | 46.82993 | -1.57095 | 5061 ft | 306 kts | 322° |
| 2026-04-29 17:57 | 46.84642 | -1.59008 | 4939 ft | 300 kts | 322° |
| 2026-04-29 17:57 | 46.86283 | -1.60913 | 4798 ft | 295 kts | 322° |
| 2026-04-29 17:57 | 46.87856 | -1.62737 | 4668 ft | 290 kts | 322° |
| 2026-04-29 17:58 | 46.89433 | -1.64566 | 4432 ft | 290 kts | 322° |
| 2026-04-29 17:58 | 46.91019 | -1.66405 | 4203 ft | 293 kts | 322° |
| 2026-04-29 17:58 | 46.92643 | -1.68293 | 3916 ft | 306 kts | 322° |
| 2026-04-29 17:58 | 46.94324 | -1.70250 | 3964 ft | 301 kts | 322° |
| 2026-04-29 17:59 | 46.95904 | -1.72075 | 4175 ft | 282 kts | 326° |
| 2026-04-29 17:59 | 46.97652 | -1.73084 | 4063 ft | 262 kts | 1° |
| 2026-04-29 17:59 | 46.99359 | -1.72715 | 4012 ft | 239 kts | 22° |
| 2026-04-29 17:59 | 47.00889 | -1.71945 | 3931 ft | 227 kts | 27° |
| 2026-04-29 18:00 | 47.02299 | -1.71026 | 3865 ft | 216 kts | 34° |
| 2026-04-29 18:00 | 47.03603 | -1.70039 | 3775 ft | 206 kts | 35° |
| 2026-04-29 18:00 | 47.04836 | -1.69089 | 3711 ft | 195 kts | 36° |
| 2026-04-29 18:00 | 47.06018 | -1.68189 | 3523 ft | 189 kts | 35° |
| 2026-04-29 18:01 | 47.07209 | -1.67280 | 2776 ft | 199 kts | 35° |
| 2026-04-29 18:01 | 47.08447 | -1.66319 | 1884 ft | 201 kts | 33° |
| 2026-04-29 18:01 | 47.09680 | -1.65378 | 1093 ft | 197 kts | 32° |
| 2026-04-29 18:01 | 47.10834 | -1.64496 | 810 ft | 173 kts | 31° |
| 2026-04-29 18:02 | 47.11859 | -1.63673 | 591 ft | 167 kts | 31° |
| 2026-04-29 18:02 | 47.12872 | -1.62867 | 381 ft | 165 kts | 29° |
| 2026-04-29 18:02 | 47.13916 | -1.62135 | 158 ft | 165 kts | 28° |
| 2026-04-29 18:02 | 47.14885 | -1.61411 | 107 ft | 142 kts | 28° |
| 2026-04-29 18:03 | 47.15642 | -1.60823 | 86 ft | 84 kts | 28° |
| 2026-04-29 18:03 | 47.15849 | -1.60584 | 83 ft | 5 kts | 89° |
| 2026-04-29 18:03 | 47.15821 | -1.60523 | 85 ft | 9 kts | 140° |
| 2026-04-29 18:03 | 47.15771 | -1.60470 | 87 ft | 14 kts | 146° |
| 2026-04-29 18:04 | 47.15730 | -1.60348 | 85 ft | 13 kts | 89° |
| 2026-04-29 18:04 | 47.15731 | -1.60313 | 87 ft | 0 kts | 88° |